Time;durP1;ratioP1;P1;durP2;ratioP2;P2;SDS_P1;SDS_P2;PMS_P1;PMS_P2;Temp;Humidity;BMP_temperature;BMP_pressure;BME280_temperature;BME280_humidity;BME280_pressure;Samples;Min_cycle;Max_cycle;Signal;HPM_P1;HPM_P2
2023/08/04 00:01:39;;;;;;;4.57;1.40;;;18.40;99.90;;;;;;4971077;28;20278;-75
2023/08/04 00:04:05;;;;;;;7.37;2.20;;;18.40;99.90;;;;;;4974274;28;20818;-75
2023/08/04 00:06:31;;;;;;;7.57;1.40;;;18.40;99.90;;;;;;4975434;28;20653;-75
2023/08/04 00:08:56;;;;;;;7.10;1.80;;;18.40;99.90;;;;;;4975061;28;20235;-75
2023/08/04 00:11:22;;;;;;;4.27;1.87;;;18.40;99.90;;;;;;4973073;28;20190;-75
2023/08/04 00:13:47;;;;;;;5.57;2.30;;;18.40;99.90;;;;;;4952475;28;20214;-74
2023/08/04 00:16:13;;;;;;;5.90;1.80;;;18.40;99.90;;;;;;4974232;28;20183;-74
2023/08/04 00:18:39;;;;;;;4.87;1.87;;;18.40;99.90;;;;;;4968587;28;20202;-74
2023/08/04 00:21:05;;;;;;;4.77;1.60;;;18.40;99.90;;;;;;4977727;28;20184;-75
2023/08/04 00:23:30;;;;;;;6.07;1.57;;;18.40;99.90;;;;;;4950615;28;20210;-75
2023/08/04 00:25:56;;;;;;;4.30;2.00;;;18.40;99.90;;;;;;4973591;28;20180;-73
2023/08/04 00:28:22;;;;;;;7.50;2.30;;;18.40;99.90;;;;;;4945119;29;20774;-74
2023/08/04 00:30:49;;;;;;;4.93;1.37;;;18.40;99.90;;;;;;4951902;28;20677;-74
2023/08/04 00:33:15;;;;;;;3.30;1.40;;;18.30;99.90;;;;;;4941633;28;20650;-74
2023/08/04 00:35:41;;;;;;;4.60;1.73;;;18.30;99.90;;;;;;4950850;28;20669;-74
2023/08/04 00:38:06;;;;;;;6.83;1.60;;;18.30;99.90;;;;;;4966632;28;20615;-74
2023/08/04 00:40:32;;;;;;;7.70;1.53;;;18.30;99.90;;;;;;4966415;28;20204;-74
2023/08/04 00:42:58;;;;;;;5.60;1.40;;;18.30;99.90;;;;;;4949622;28;20591;-75
2023/08/04 00:45:26;;;;;;;7.57;1.70;;;18.20;99.90;;;;;;4947101;28;20596;-74
2023/08/04 00:47:52;;;;;;;3.70;2.17;;;18.20;99.90;;;;;;4935009;29;21166;-74
2023/08/04 00:50:19;;;;;;;4.40;1.47;;;18.20;99.90;;;;;;4953550;28;20605;-74
2023/08/04 00:52:45;;;;;;;7.63;1.50;;;18.20;99.90;;;;;;4957500;28;21220;-74
2023/08/04 00:55:12;;;;;;;7.20;1.93;;;18.20;99.90;;;;;;4973064;28;21287;-74
2023/08/04 00:57:39;;;;;;;4.33;1.37;;;18.20;99.90;;;;;;4958826;28;20622;-74
2023/08/04 01:00:07;;;;;;;4.57;1.33;;;18.10;99.90;;;;;;4945295;28;20709;-75
2023/08/04 01:02:33;;;;;;;8.97;2.43;;;18.10;99.90;;;;;;4949190;28;20630;-75
2023/08/04 01:05:02;;;;;;;4.10;1.43;;;18.10;99.90;;;;;;4960888;28;20666;-74
2023/08/04 01:08:31;;;;;;;5.73;1.53;;;18.10;99.90;;;;;;4950091;28;20581;-74
2023/08/04 01:11:03;;;;;;;5.57;1.43;;;18.10;99.90;;;;;;4936505;28;20594;-73
2023/08/04 01:13:29;;;;;;;5.03;1.37;;;18.10;99.90;;;;;;4972958;28;20633;-74
2023/08/04 01:15:56;;;;;;;3.93;1.60;;;18.10;99.90;;;;;;4928053;29;20600;-74
2023/08/04 01:18:22;;;;;;;5.53;1.63;;;18.10;99.90;;;;;;4911563;28;20656;-74
2023/08/04 01:20:49;;;;;;;3.83;1.73;;;18.10;99.90;;;;;;4945222;28;20593;-74
2023/08/04 01:23:15;;;;;;;5.77;1.77;;;18.10;99.90;;;;;;4950078;28;20585;-75
2023/08/04 01:25:42;;;;;;;4.27;2.00;;;18.10;99.90;;;;;;4972866;28;21151;-75
2023/08/04 01:28:12;;;;;;;7.00;1.90;;;18.10;99.90;;;;;;4962121;28;21231;-75
2023/08/04 01:30:39;;;;;;;6.90;1.73;;;18.10;99.90;;;;;;4959504;28;20591;-74
2023/08/04 01:33:05;;;;;;;7.20;1.97;;;18.10;99.90;;;;;;4956638;28;20595;-74
2023/08/04 01:35:31;;;;;;;3.47;1.40;;;18.10;99.90;;;;;;4968306;28;21210;-74
2023/08/04 01:37:56;;;;;;;4.13;2.17;;;18.10;99.90;;;;;;4939550;28;20277;-75
2023/08/04 01:40:22;;;;;;;7.53;2.27;;;18.10;99.90;;;;;;4973558;28;20612;-75
2023/08/04 01:42:48;;;;;;;6.17;2.10;;;18.10;99.90;;;;;;4956472;28;20195;-75
2023/08/04 01:45:16;;;;;;;6.13;1.53;;;18.10;99.90;;;;;;4940654;28;20192;-75
2023/08/04 01:47:44;;;;;;;6.37;1.60;;;18.10;99.90;;;;;;4940155;28;20625;-75
2023/08/04 01:50:10;;;;;;;4.77;1.70;;;18.00;99.90;;;;;;4956196;28;20282;-74
2023/08/04 01:52:36;;;;;;;5.00;1.80;;;18.00;99.90;;;;;;4951839;28;20686;-73
2023/08/04 01:55:02;;;;;;;10.03;1.83;;;18.00;99.90;;;;;;4923922;28;20544;-74
2023/08/04 01:57:27;;;;;;;5.33;1.83;;;18.00;99.90;;;;;;4955854;28;20583;-74
2023/08/04 01:59:54;;;;;;;4.10;1.70;;;17.90;99.90;;;;;;4940337;28;21062;-74
2023/08/04 02:02:20;;;;;;;5.60;1.60;;;17.90;99.90;;;;;;4939909;28;20613;-74
2023/08/04 02:04:46;;;;;;;5.27;1.60;;;17.80;99.90;;;;;;4939825;28;20267;-74
2023/08/04 02:07:11;;;;;;;2.73;1.50;;;17.80;99.90;;;;;;4939720;28;20195;-74
2023/08/04 02:09:37;;;;;;;4.73;1.40;;;17.70;99.90;;;;;;4938764;28;20203;-73
2023/08/04 02:12:03;;;;;;;7.53;2.37;;;17.70;99.90;;;;;;4955750;28;20615;-73
2023/08/04 02:14:29;;;;;;;7.40;1.70;;;17.70;99.90;;;;;;4939556;28;20238;-74
2023/08/04 02:16:55;;;;;;;5.63;1.40;;;17.60;99.90;;;;;;4972925;28;20587;-74
2023/08/04 02:19:22;;;;;;;3.83;1.77;;;17.60;99.90;;;;;;4939172;28;20211;-74
2023/08/04 02:21:50;;;;;;;7.40;1.50;;;17.60;99.90;;;;;;4955942;28;20630;-74
2023/08/04 02:24:16;;;;;;;4.07;1.33;;;17.50;99.90;;;;;;4972859;28;20979;-73
2023/08/04 02:26:44;;;;;;;5.07;2.17;;;17.50;99.90;;;;;;4968804;28;20597;-74
2023/08/04 02:29:11;;;;;;;4.20;2.33;;;17.50;99.90;;;;;;4920888;29;21587;-74
2023/08/04 02:31:43;;;;;;;6.80;2.10;;;17.40;99.90;;;;;;5068348;28;20779;-74
2023/08/04 02:34:09;;;;;;;8.00;2.30;;;17.40;99.90;;;;;;5068243;28;21023;-74
2023/08/04 02:36:35;;;;;;;3.10;1.70;;;17.40;99.90;;;;;;5068062;28;20234;-74
2023/08/04 02:39:00;;;;;;;4.93;2.00;;;17.30;99.90;;;;;;5055761;28;20605;-74
2023/08/04 02:41:26;;;;;;;7.37;2.60;;;17.30;99.90;;;;;;5029831;28;20173;-75
2023/08/04 02:43:52;;;;;;;8.20;2.07;;;17.30;99.90;;;;;;5030143;28;20602;-75
2023/08/04 02:46:20;;;;;;;8.63;2.97;;;17.30;99.90;;;;;;5046396;28;20780;-74
2023/08/04 02:48:46;;;;;;;5.50;1.87;;;17.20;99.90;;;;;;5046191;28;20608;-73
2023/08/04 02:51:33;;;;;;;6.30;2.10;;;17.20;99.90;;;;;;5050359;28;20635;-73
2023/08/04 02:53:59;;;;;;;5.37;1.60;;;17.20;99.90;;;;;;5063281;28;20183;-73
2023/08/04 02:56:25;;;;;;;5.80;2.00;;;17.20;99.90;;;;;;5029650;28;20598;-73
2023/08/04 02:58:51;;;;;;;6.57;2.30;;;17.10;99.90;;;;;;5047014;28;21247;-74
2023/08/04 03:01:16;;;;;;;6.77;3.27;;;17.10;99.90;;;;;;5046109;28;20173;-74
2023/08/04 03:03:42;;;;;;;4.53;2.20;;;17.10;99.90;;;;;;5047582;28;20567;-74
2023/08/04 03:06:08;;;;;;;5.13;2.00;;;17.10;99.90;;;;;;5046459;28;20651;-75
2023/08/04 03:08:34;;;;;;;10.93;2.30;;;17.10;99.90;;;;;;5047217;28;20189;-75
2023/08/04 03:11:00;;;;;;;4.93;2.47;;;17.10;99.90;;;;;;5045780;28;20697;-75
2023/08/04 03:13:27;;;;;;;5.60;2.10;;;17.10;99.90;;;;;;5046017;28;20252;-75
2023/08/04 03:16:00;;;;;;;13.77;3.00;;;17.10;99.90;;;;;;5047354;28;21171;-75
2023/08/04 03:18:27;;;;;;;3.53;2.20;;;17.10;99.90;;;;;;5028992;28;20619;-75
2023/08/04 03:20:53;;;;;;;6.03;2.50;;;17.10;99.90;;;;;;5045754;28;20602;-75
2023/08/04 03:23:21;;;;;;;8.47;2.50;;;17.10;99.90;;;;;;5042502;28;20604;-75
2023/08/04 03:25:47;;;;;;;5.73;2.37;;;17.20;99.90;;;;;;5033318;28;20639;-74
2023/08/04 03:39:34;;;;;;;6.27;2.43;;;17.10;99.90;;;;;;5044606;28;20630;-75
2023/08/04 03:42:00;;;;;;;10.17;2.57;;;17.20;99.90;;;;;;5038841;28;20588;-75
2023/08/04 03:44:27;;;;;;;9.90;2.80;;;17.10;99.90;;;;;;5015866;28;20184;-75
2023/08/04 03:46:52;;;;;;;5.23;2.07;;;17.10;99.90;;;;;;5031861;28;20577;-75
2023/08/04 03:49:18;;;;;;;10.03;2.90;;;17.10;99.90;;;;;;5031763;28;20560;-75
2023/08/04 03:51:43;;;;;;;8.73;2.83;;;17.00;99.90;;;;;;5032371;28;20534;-75
2023/08/04 03:54:09;;;;;;;7.40;2.70;;;17.00;99.90;;;;;;5033383;28;20256;-75
2023/08/04 03:56:35;;;;;;;5.80;2.80;;;17.00;99.90;;;;;;5032930;28;20174;-74
2023/08/04 03:59:00;;;;;;;7.70;3.37;;;17.00;99.90;;;;;;5033101;28;20193;-75
2023/08/04 04:01:26;;;;;;;7.20;2.93;;;17.00;99.90;;;;;;5031806;28;20176;-74
2023/08/04 04:03:52;;;;;;;5.67;2.90;;;17.00;99.90;;;;;;5033434;28;20261;-74
2023/08/04 04:06:18;;;;;;;7.17;2.63;;;17.00;99.90;;;;;;5031710;28;20276;-74
2023/08/04 04:08:45;;;;;;;6.57;3.07;;;17.00;99.90;;;;;;5032983;28;20620;-74
2023/08/04 04:11:11;;;;;;;7.20;3.37;;;17.00;99.90;;;;;;5031942;28;20198;-74
2023/08/04 04:13:37;;;;;;;7.60;3.10;;;17.00;99.90;;;;;;5033116;28;20593;-74
2023/08/04 04:16:03;;;;;;;6.63;3.50;;;17.00;99.90;;;;;;5031424;28;20649;-74
2023/08/04 04:18:28;;;;;;;9.00;3.07;;;17.00;99.90;;;;;;5031551;28;20193;-74
2023/08/04 04:20:54;;;;;;;8.33;2.93;;;17.10;99.90;;;;;;5031375;28;20216;-74
2023/08/04 04:27:07;;;;;;;10.10;3.17;;;17.10;99.90;;;;;;5033055;28;20570;-74
2023/08/04 04:29:39;;;;;;;5.87;3.93;;;17.20;99.90;;;;;;5031062;28;20640;-75
2023/08/04 04:32:09;;;;;;;8.63;3.43;;;17.20;99.90;;;;;;5032819;28;20209;-75
2023/08/04 04:34:34;;;;;;;4.57;3.13;;;17.30;99.90;;;;;;5032444;28;20683;-74
2023/08/04 04:37:00;;;;;;;8.80;3.30;;;17.30;99.90;;;;;;5032730;28;21214;-74
2023/08/04 04:39:26;;;;;;;8.13;4.37;;;17.40;99.90;;;;;;5031104;28;20200;-74
2023/08/04 04:41:52;;;;;;;8.20;4.37;;;17.40;99.90;;;;;;5031373;28;21129;-74
2023/08/04 04:44:18;;;;;;;10.23;4.20;;;17.50;99.90;;;;;;5031000;28;20584;-74
2023/08/04 04:46:44;;;;;;;8.63;3.07;;;17.50;99.90;;;;;;5027918;28;20269;-75
2023/08/04 04:49:09;;;;;;;9.63;2.93;;;17.60;99.90;;;;;;5026217;28;20548;-73
2023/08/04 04:55:23;;;;;;;5.53;3.17;;;17.70;99.90;;;;;;5032128;28;20176;-75
2023/08/04 04:57:48;;;;;;;8.47;3.70;;;17.70;99.90;;;;;;5031023;28;20600;-75
2023/08/04 05:00:14;;;;;;;11.43;3.97;;;17.80;99.90;;;;;;5030655;28;20186;-73
2023/08/04 05:02:40;;;;;;;10.53;3.67;;;17.80;99.90;;;;;;5032223;28;20182;-73
2023/08/04 05:05:06;;;;;;;4.97;2.73;;;17.90;99.90;;;;;;5030919;28;20600;-74
2023/08/04 05:07:32;;;;;;;9.97;3.07;;;17.90;99.90;;;;;;5030669;28;20697;-74
2023/08/04 05:09:58;;;;;;;11.27;3.50;;;18.00;99.90;;;;;;5030398;28;21256;-74
2023/08/04 05:12:23;;;;;;;7.30;3.63;;;18.10;99.90;;;;;;5030425;28;20260;-74
2023/08/04 05:14:49;;;;;;;10.07;4.90;;;18.10;99.90;;;;;;5031928;28;20169;-74
2023/08/04 05:25:08;;;;;;;5.60;2.93;;;18.40;99.90;;;;;;5024069;28;20662;-74
2023/08/04 05:27:34;;;;;;;4.07;2.47;;;18.50;99.90;;;;;;5031298;28;20604;-75
2023/08/04 05:30:00;;;;;;;4.40;2.60;;;18.50;99.90;;;;;;5012716;28;20652;-74
2023/08/04 05:32:26;;;;;;;5.87;3.33;;;18.60;99.90;;;;;;5030273;28;20174;-75
2023/08/04 05:35:48;;;;;;;10.73;3.20;;;18.70;99.90;;;;;;5032762;28;20591;-74
2023/08/04 05:38:29;;;;;;;7.40;3.37;;;18.70;99.90;;;;;;5029605;28;21083;-75
2023/08/04 05:41:01;;;;;;;7.43;2.80;;;18.80;99.90;;;;;;5030434;28;20603;-74
2023/08/04 05:51:47;;;;;;;5.97;3.23;;;19.00;99.90;;;;;;5035528;28;21043;-73
2023/08/04 05:58:05;;;;;;;7.50;2.30;;;19.10;99.90;;;;;;5030632;28;20588;-75
2023/08/04 06:00:30;;;;;;;6.73;3.30;;;19.10;99.90;;;;;;5028953;28;20662;-74
2023/08/04 06:11:21;;;;;;;6.57;3.00;;;19.30;99.90;;;;;;5028312;28;20716;-75
2023/08/04 06:13:47;;;;;;;9.53;3.20;;;19.30;99.90;;;;;;5029090;28;20611;-75
2023/08/04 06:16:13;;;;;;;7.23;3.43;;;19.40;99.90;;;;;;5030973;28;21073;-75
2023/08/04 06:18:39;;;;;;;7.10;3.60;;;19.40;99.90;;;;;;5030721;28;20619;-75
2023/08/04 06:21:04;;;;;;;6.40;3.00;;;19.50;99.90;;;;;;5030526;28;20180;-75
2023/08/04 06:23:30;;;;;;;6.87;3.70;;;19.50;99.90;;;;;;5054299;28;20212;-75
2023/08/04 06:25:56;;;;;;;10.60;3.67;;;19.60;99.90;;;;;;5030773;28;20177;-75
2023/08/04 06:28:21;;;;;;;5.97;3.70;;;19.60;99.90;;;;;;5029283;28;20497;-75
2023/08/04 06:30:47;;;;;;;7.27;3.60;;;19.70;99.90;;;;;;5028867;28;20204;-75
2023/08/04 06:33:13;;;;;;;5.10;2.87;;;19.80;99.90;;;;;;5030847;28;20205;-75
2023/08/04 06:35:41;;;;;;;5.33;3.40;;;19.80;99.90;;;;;;5030774;28;20204;-74
2023/08/04 06:38:10;;;;;;;12.90;3.97;;;19.90;99.90;;;;;;5029261;28;20280;-74
2023/08/04 06:40:37;;;;;;;8.60;3.70;;;20.00;99.90;;;;;;5030533;28;20592;-75
2023/08/04 06:43:03;;;;;;;6.77;3.67;;;20.10;99.90;;;;;;5007971;28;20589;-75
2023/08/04 06:45:29;;;;;;;8.63;4.40;;;20.10;99.90;;;;;;5027492;28;20585;-75
2023/08/04 06:47:55;;;;;;;6.23;3.00;;;20.20;99.90;;;;;;5029318;28;20188;-75
2023/08/04 06:50:21;;;;;;;5.70;3.00;;;20.20;99.90;;;;;;5029025;28;20264;-74
2023/08/04 06:52:47;;;;;;;5.70;3.30;;;20.30;99.90;;;;;;5012780;28;20197;-73
2023/08/04 06:55:13;;;;;;;8.53;3.57;;;20.30;99.90;;;;;;5029468;28;20616;-74
2023/08/04 06:57:39;;;;;;;6.90;2.90;;;20.40;99.90;;;;;;5012716;28;20638;-73
2023/08/04 07:00:09;;;;;;;7.60;3.43;;;20.50;99.90;;;;;;5030246;28;20615;-74
2023/08/04 07:02:35;;;;;;;7.33;3.40;;;20.50;99.90;;;;;;5029811;28;20201;-74
2023/08/04 07:05:00;;;;;;;7.63;3.33;;;20.60;99.90;;;;;;5020609;28;20623;-73
2023/08/04 07:07:26;;;;;;;8.90;3.00;;;20.70;99.90;;;;;;5031830;28;20179;-74
2023/08/04 07:09:52;;;;;;;5.70;2.90;;;20.70;99.90;;;;;;5033878;28;20687;-78
2023/08/04 07:12:18;;;;;;;8.57;2.83;;;20.80;99.90;;;;;;5033933;28;20174;-77
2023/08/04 07:14:43;;;;;;;10.83;3.83;;;20.80;99.90;;;;;;5035271;28;20181;-74
2023/08/04 07:17:09;;;;;;;6.53;3.17;;;20.90;99.90;;;;;;5017890;28;20194;-75
2023/08/04 07:19:35;;;;;;;8.97;3.03;;;20.90;99.90;;;;;;5020225;28;20197;-75
2023/08/04 07:22:01;;;;;;;5.43;2.70;;;20.90;99.90;;;;;;5021418;28;20177;-74
2023/08/04 07:24:30;;;;;;;5.73;2.50;;;20.90;99.90;;;;;;5026400;28;20588;-74
2023/08/04 07:26:56;;;;;;;7.10;3.30;;;20.90;99.90;;;;;;5033860;28;20583;-74
2023/08/04 07:29:21;;;;;;;10.33;4.40;;;20.90;99.90;;;;;;5019222;28;20201;-74
2023/08/04 07:31:50;;;;;;;6.60;4.23;;;20.90;99.90;;;;;;5018368;28;21204;-74
2023/08/04 07:34:16;;;;;;;5.23;2.77;;;20.90;99.90;;;;;;5033953;28;20173;-75
2023/08/04 07:36:44;;;;;;;5.23;2.93;;;21.00;99.90;;;;;;5038255;28;20598;-74
2023/08/04 07:39:11;;;;;;;10.13;3.73;;;21.00;99.90;;;;;;5033975;28;20196;-74
2023/08/04 07:41:36;;;;;;;8.70;3.50;;;21.10;99.90;;;;;;5032486;28;20602;-75
2023/08/04 07:44:02;;;;;;;8.13;4.20;;;21.20;99.90;;;;;;5034216;28;20592;-74
2023/08/04 07:46:29;;;;;;;6.73;3.33;;;21.20;99.90;;;;;;5032189;28;20209;-74
2023/08/04 07:48:55;;;;;;;8.93;3.97;;;21.30;99.90;;;;;;5026676;28;20205;-74
2023/08/04 07:51:22;;;;;;;9.40;5.23;;;21.40;99.90;;;;;;5033581;28;20674;-74
2023/08/04 07:53:48;;;;;;;8.17;3.73;;;21.50;99.90;;;;;;5032359;28;20182;-74
2023/08/04 07:56:14;;;;;;;6.90;3.43;;;21.60;99.90;;;;;;5033279;28;20585;-75
2023/08/04 08:06:14;;;;;;;5.77;3.80;;;22.10;99.90;;;;;;5027862;28;20726;-74
2023/08/04 08:08:40;;;;;;;5.67;3.20;;;22.40;99.90;;;;;;5024197;28;21226;-75
2023/08/04 08:11:09;;;;;;;5.07;3.40;;;22.60;99.90;;;;;;5032471;28;20701;-74
2023/08/04 08:13:35;;;;;;;7.83;3.67;;;22.80;99.90;;;;;;5032801;28;20212;-75
2023/08/04 08:16:15;;;;;;;6.20;3.70;;;23.00;99.90;;;;;;5031704;28;20580;-75
2023/08/04 08:22:45;;;;;;;6.13;2.63;;;23.10;99.90;;;;;;5029055;28;20926;-75
2023/08/04 08:25:12;;;;;;;4.20;2.40;;;23.30;99.90;;;;;;5031631;28;20606;-76
2023/08/04 08:28:15;;;;;;;4.10;2.40;;;23.30;99.90;;;;;;5030864;28;20638;-75
2023/08/04 08:30:41;;;;;;;6.77;2.87;;;23.20;99.90;;;;;;5030980;28;20781;-75
2023/08/04 08:33:06;;;;;;;7.23;3.40;;;23.20;99.90;;;;;;5014973;28;21074;-76
2023/08/04 08:39:20;;;;;;;4.87;2.43;;;23.00;99.90;;;;;;5032375;28;20220;-75
2023/08/04 08:41:46;;;;;;;7.33;2.60;;;23.00;99.90;;;;;;5032646;28;20948;-76
2023/08/04 08:44:12;;;;;;;4.07;2.20;;;22.90;99.90;;;;;;4998256;28;20592;-75
2023/08/04 08:50:27;;;;;;;4.60;2.40;;;22.80;99.90;;;;;;5029876;28;20635;-75
2023/08/04 08:53:03;;;;;;;5.67;2.10;;;22.80;99.90;;;;;;5014631;28;20600;-75
2023/08/04 08:55:28;;;;;;;5.90;2.10;;;22.70;99.90;;;;;;5031037;28;20618;-75
2023/08/04 08:57:56;;;;;;;6.50;2.40;;;22.70;99.90;;;;;;5030584;28;20592;-74
2023/08/04 09:00:22;;;;;;;3.33;2.30;;;22.60;99.90;;;;;;5030574;28;21179;-75
2023/08/04 09:02:48;;;;;;;6.20;2.17;;;22.60;99.90;;;;;;5012934;28;20596;-75
2023/08/04 09:05:16;;;;;;;4.70;2.40;;;22.50;99.90;;;;;;5030939;28;20184;-75
2023/08/04 09:07:42;;;;;;;7.77;1.97;;;22.40;99.90;;;;;;5031603;28;20944;-75
2023/08/04 09:10:08;;;;;;;4.87;2.40;;;22.40;99.90;;;;;;5030397;28;20659;-75
2023/08/04 09:12:35;;;;;;;5.30;1.80;;;22.30;99.90;;;;;;5031916;28;20227;-75
2023/08/04 09:15:04;;;;;;;4.67;1.83;;;22.30;99.90;;;;;;5030766;28;20595;-75
2023/08/04 09:17:34;;;;;;;6.10;2.27;;;22.20;99.90;;;;;;5031870;28;21233;-75
2023/08/04 09:20:02;;;;;;;4.30;1.67;;;22.20;99.90;;;;;;5030250;28;20624;-75
2023/08/04 09:22:28;;;;;;;6.17;2.20;;;22.10;99.90;;;;;;5030607;28;20681;-75
2023/08/04 09:25:04;;;;;;;6.93;2.13;;;22.10;99.90;;;;;;5028114;28;20731;-75
2023/08/04 09:27:34;;;;;;;6.77;2.00;;;22.00;99.90;;;;;;5039549;28;20594;-75
2023/08/04 09:30:08;;;;;;;6.47;1.80;;;22.00;99.90;;;;;;5028708;28;20648;-75
2023/08/04 09:40:19;;;;;;;3.60;1.97;;;21.90;99.90;;;;;;5016433;28;20644;-75
2023/08/04 09:42:46;;;;;;;4.53;2.50;;;21.90;99.90;;;;;;5030103;28;20604;-75
2023/08/04 09:45:16;;;;;;;4.53;1.67;;;21.90;99.90;;;;;;5031207;28;20588;-74
2023/08/04 09:47:49;;;;;;;5.57;1.80;;;21.90;99.90;;;;;;5029665;28;20597;-75
2023/08/04 09:50:18;;;;;;;5.30;2.27;;;22.00;99.90;;;;;;5031006;28;20646;-74
2023/08/04 09:52:44;;;;;;;2.40;1.70;;;22.00;99.90;;;;;;5029769;28;21005;-75
2023/08/04 09:55:51;;;;;;;5.03;2.00;;;22.00;99.90;;;;;;5036265;28;20679;-75
2023/08/04 09:58:16;;;;;;;3.20;2.00;;;22.00;99.90;;;;;;5030445;28;20632;-74
2023/08/04 10:00:43;;;;;;;3.33;2.50;;;22.00;99.90;;;;;;5038023;28;20596;-75
2023/08/04 10:03:08;;;;;;;5.60;2.80;;;22.10;99.90;;;;;;5029371;28;20592;-74
2023/08/04 10:05:34;;;;;;;5.27;3.20;;;22.10;99.90;;;;;;5030848;28;20182;-74
2023/08/04 10:08:02;;;;;;;4.57;2.80;;;22.20;99.90;;;;;;5029264;28;20644;-75
2023/08/04 10:10:28;;;;;;;5.27;2.50;;;22.20;99.90;;;;;;5030548;28;20205;-74
2023/08/04 10:12:54;;;;;;;4.00;1.70;;;22.30;99.90;;;;;;5029200;28;20608;-75
2023/08/04 10:15:20;;;;;;;5.83;2.63;;;22.40;99.90;;;;;;5029412;28;20169;-74
2023/08/04 10:17:46;;;;;;;4.73;2.17;;;22.60;99.90;;;;;;5030649;28;20178;-75
2023/08/04 10:20:12;;;;;;;5.40;1.77;;;22.70;99.90;;;;;;5030413;28;20616;-76
2023/08/04 10:22:42;;;;;;;5.70;2.90;;;22.80;99.90;;;;;;5030807;28;20638;-74
2023/08/04 10:25:15;;;;;;;4.40;1.63;;;23.00;99.90;;;;;;5027155;28;20255;-75
2023/08/04 10:27:50;;;;;;;4.50;2.10;;;23.10;99.90;;;;;;5037291;28;20592;-75
2023/08/04 10:30:20;;;;;;;5.10;2.20;;;23.20;99.90;;;;;;5029056;28;20674;-75
2023/08/04 10:32:47;;;;;;;4.00;2.03;;;23.40;99.90;;;;;;5029248;28;20588;-75
2023/08/04 10:35:18;;;;;;;4.23;2.27;;;23.60;99.90;;;;;;5029779;28;20989;-74
2023/08/04 10:39:02;;;;;;;5.50;2.93;;;23.80;99.90;;;;;;5856664;23;20654;-76
2023/08/04 10:41:30;;;;;;;4.97;2.10;;;24.10;99.90;;;;;;4892145;29;20674;-77
2023/08/04 10:44:00;;;;;;;3.30;1.63;;;24.40;99.90;;;;;;4950342;28;20640;-77
2023/08/04 10:46:26;;;;;;;3.10;1.33;;;24.60;99.90;;;;;;4979727;28;20593;-79
2023/08/04 10:48:52;;;;;;;3.60;1.40;;;24.70;99.90;;;;;;4976554;28;20618;-77
2023/08/04 10:51:22;;;;;;;3.40;1.00;;;24.70;99.90;;;;;;4975947;28;20209;-80
2023/08/04 10:53:47;;;;;;;2.07;1.10;;;24.70;99.90;;;;;;4980499;28;20190;-77
2023/08/04 10:56:13;;;;;;;5.37;1.40;;;24.60;99.90;;;;;;4984720;28;20587;-77
2023/08/04 10:58:39;;;;;;;2.80;1.20;;;24.50;99.90;;;;;;5007149;28;20268;-78
2023/08/04 11:01:04;;;;;;;2.60;1.30;;;24.40;99.90;;;;;;5005299;28;20179;-78
2023/08/04 11:03:36;;;;;;;3.90;1.20;;;24.30;99.90;;;;;;4974658;28;20187;-77
2023/08/04 11:06:03;;;;;;;3.83;1.60;;;24.20;99.90;;;;;;4990028;28;20187;-77
2023/08/04 11:08:29;;;;;;;3.87;1.77;;;24.10;99.90;;;;;;4975419;28;20633;-77
2023/08/04 11:10:58;;;;;;;2.77;1.67;;;24.00;99.90;;;;;;4975121;28;20642;-78
2023/08/04 11:13:25;;;;;;;4.97;1.50;;;24.00;99.90;;;;;;4983503;28;20619;-77
2023/08/04 11:15:54;;;;;;;3.60;1.70;;;23.90;99.90;;;;;;5009459;28;20589;-78
2023/08/04 11:18:27;;;;;;;2.00;1.20;;;23.90;99.90;;;;;;4978907;28;20606;-78
2023/08/04 11:20:53;;;;;;;5.00;1.20;;;24.00;99.90;;;;;;4983087;28;20586;-78
2023/08/04 11:23:30;;;;;;;4.47;1.60;;;24.10;99.90;;;;;;4982076;28;21132;-77
2023/08/04 11:25:57;;;;;;;5.50;1.40;;;24.20;99.90;;;;;;5001308;28;20582;-78
2023/08/04 11:28:22;;;;;;;1.97;1.20;;;24.30;99.90;;;;;;4987975;28;20644;-77
2023/08/04 11:30:48;;;;;;;3.23;1.33;;;24.40;99.90;;;;;;4986501;28;21211;-78
2023/08/04 11:33:16;;;;;;;2.40;1.40;;;24.70;99.90;;;;;;4979589;28;20267;-77
2023/08/04 11:35:44;;;;;;;2.10;1.10;;;25.10;99.90;;;;;;4975085;28;20587;-78
2023/08/04 11:38:10;;;;;;;5.03;1.17;;;25.60;99.90;;;;;;4981648;28;20672;-78
2023/08/04 11:40:53;;;;;;;2.17;0.87;;;26.10;99.90;;;;;;4974860;28;20618;-78
2023/08/04 11:43:18;;;;;;;3.40;0.90;;;26.70;99.90;;;;;;4983095;28;20192;-77
2023/08/04 11:45:47;;;;;;;2.50;0.90;;;27.20;99.90;;;;;;4983815;28;20590;-78
2023/08/04 11:48:23;;;;;;;2.30;1.07;;;27.60;99.90;;;;;;4987355;28;20665;-77
2023/08/04 11:50:51;;;;;;;1.93;0.70;;;27.90;99.90;;;;;;4990375;28;21218;-78
2023/08/04 11:53:17;;;;;;;2.90;1.00;;;28.20;99.90;;;;;;4973435;28;20606;-78
2023/08/04 11:55:57;;;;;;;2.40;1.17;;;28.30;99.90;;;;;;4973873;28;20591;-79
2023/08/04 11:58:38;;;;;;;2.97;1.10;;;28.40;99.90;;;;;;4975687;28;20183;-78
2023/08/04 12:01:05;;;;;;;2.80;0.97;;;28.50;99.90;;;;;;4982471;28;20600;-78
2023/08/04 12:03:47;;;;;;;3.60;1.10;;;28.70;99.90;;;;;;4978082;28;20980;-78
2023/08/04 12:06:20;;;;;;;1.73;0.80;;;28.80;99.90;;;;;;4997853;28;20645;-80
2023/08/04 12:08:55;;;;;;;2.47;1.23;;;28.90;99.90;;;;;;4983096;28;20636;-77
2023/08/04 12:11:26;;;;;;;3.10;0.93;;;29.00;99.90;;;;;;4986329;28;20649;-78
2023/08/04 12:13:51;;;;;;;2.53;0.90;;;29.00;99.90;;;;;;4982914;28;20622;-79
2023/08/04 12:16:18;;;;;;;1.97;0.90;;;29.00;99.90;;;;;;4958203;28;20633;-79
2023/08/04 12:18:45;;;;;;;5.07;0.90;;;29.00;99.90;;;;;;4983657;28;20980;-78
2023/08/04 12:21:15;;;;;;;1.97;0.80;;;28.90;99.90;;;;;;4988117;28;20590;-80
2023/08/04 12:23:46;;;;;;;2.93;1.07;;;28.90;99.90;;;;;;4983572;28;20598;-79
2023/08/04 12:26:12;;;;;;;2.83;1.03;;;28.90;99.90;;;;;;4984836;28;20584;-79
2023/08/04 12:28:38;;;;;;;3.00;1.00;;;28.80;99.90;;;;;;4977781;28;20629;-78
2023/08/04 12:31:03;;;;;;;2.87;1.20;;;28.80;99.90;;;;;;5014659;23;20211;-74
2023/08/04 12:33:29;;;;;;;2.63;1.10;;;28.70;99.90;;;;;;4950781;28;20198;-76
2023/08/04 12:35:55;;;;;;;1.70;1.20;;;28.70;99.90;;;;;;4990928;28;20180;-75
2023/08/04 12:38:20;;;;;;;2.13;1.00;;;28.70;99.90;;;;;;4986688;28;20672;-75
2023/08/04 12:40:47;;;;;;;3.07;1.30;;;28.60;99.90;;;;;;4982945;28;20179;-77
2023/08/04 12:43:13;;;;;;;4.33;1.40;;;28.50;99.90;;;;;;4992672;28;20176;-76
2023/08/04 12:45:39;;;;;;;4.40;1.10;;;28.50;99.90;;;;;;4983180;28;20605;-76
2023/08/04 12:48:05;;;;;;;3.00;1.00;;;28.40;99.90;;;;;;4973470;28;20251;-76
2023/08/04 12:50:32;;;;;;;3.13;0.97;;;28.40;99.90;;;;;;4977048;28;20758;-76
2023/08/04 12:52:57;;;;;;;2.57;1.10;;;28.40;99.90;;;;;;4980407;28;20250;-75
2023/08/04 12:55:23;;;;;;;2.57;1.33;;;28.30;99.90;;;;;;4987476;28;20594;-76
2023/08/04 12:57:49;;;;;;;2.03;1.00;;;28.20;99.90;;;;;;4992176;28;20633;-75
2023/08/04 13:00:15;;;;;;;4.03;1.30;;;28.20;99.90;;;;;;4991802;28;20187;-75
2023/08/04 13:02:41;;;;;;;2.47;0.90;;;28.10;99.90;;;;;;4976118;28;20559;-75
2023/08/04 13:05:07;;;;;;;2.10;1.20;;;28.10;99.90;;;;;;4952693;28;20609;-75
2023/08/04 13:07:32;;;;;;;3.40;1.07;;;28.00;99.90;;;;;;4985516;28;20602;-75
2023/08/04 13:09:58;;;;;;;2.07;1.20;;;28.00;99.90;;;;;;4990963;28;20304;-75
2023/08/04 13:12:24;;;;;;;3.60;1.10;;;27.90;99.90;;;;;;4985036;28;20259;-75
2023/08/04 13:14:50;;;;;;;2.23;1.03;;;27.80;99.90;;;;;;4987449;28;20272;-75
2023/08/04 13:17:15;;;;;;;2.00;1.00;;;27.60;99.90;;;;;;4978096;28;20634;-75
2023/08/04 13:19:45;;;;;;;2.50;1.10;;;27.50;99.90;;;;;;4989974;28;20207;-75
2023/08/04 13:22:12;;;;;;;2.73;1.30;;;27.40;99.90;;;;;;4984443;28;20204;-76
2023/08/04 13:24:38;;;;;;;2.27;0.97;;;27.30;99.90;;;;;;4988171;28;20629;-75
2023/08/04 13:27:07;;;;;;;2.17;0.80;;;27.20;99.90;;;;;;4979669;28;20994;-75
2023/08/04 13:29:33;;;;;;;2.10;1.00;;;27.20;99.90;;;;;;4983022;28;20591;-74
2023/08/04 13:31:58;;;;;;;1.77;0.90;;;27.10;99.90;;;;;;4983978;28;20665;-75
2023/08/04 13:34:24;;;;;;;2.00;0.80;;;27.10;99.90;;;;;;4984623;28;20253;-74
2023/08/04 13:36:50;;;;;;;2.30;1.00;;;27.00;99.90;;;;;;4990387;28;20207;-74
2023/08/04 13:39:16;;;;;;;2.77;1.10;;;26.90;99.90;;;;;;4977474;28;20172;-75
2023/08/04 13:41:41;;;;;;;3.20;1.20;;;26.80;99.90;;;;;;4985961;28;20203;-76
2023/08/04 13:44:07;;;;;;;3.50;1.00;;;26.80;99.90;;;;;;4983054;28;20230;-75
2023/08/04 13:46:42;;;;;;;2.23;0.90;;;26.70;99.90;;;;;;4992336;28;20684;-75
2023/08/04 13:49:07;;;;;;;1.50;0.83;;;26.60;99.90;;;;;;4986706;28;20209;-76
2023/08/04 13:51:33;;;;;;;2.67;1.00;;;26.50;99.90;;;;;;4991612;28;20731;-76
2023/08/04 13:53:59;;;;;;;1.57;1.00;;;26.40;99.90;;;;;;4974757;28;20171;-76
2023/08/04 13:56:25;;;;;;;2.23;1.00;;;26.30;99.90;;;;;;4982797;28;20182;-76
2023/08/04 13:58:51;;;;;;;2.47;1.13;;;26.20;99.90;;;;;;4998093;28;20186;-77
2023/08/04 14:01:17;;;;;;;3.37;1.03;;;26.10;99.90;;;;;;4998989;28;20195;-77
2023/08/04 14:03:43;;;;;;;1.83;0.90;;;26.10;99.90;;;;;;4982475;28;20664;-78